createdAt,value
2022-10-01T00:00:06.237Z,26.00
2022-10-01T00:02:42.457Z,25.90
2022-10-01T00:05:14.396Z,25.90
2022-10-01T00:07:47.587Z,25.90
2022-10-01T00:10:18.608Z,25.80
2022-10-01T00:12:50.772Z,25.80
2022-10-01T00:15:23.794Z,25.70
2022-10-01T00:17:58.912Z,25.60
2022-10-01T00:20:28.824Z,25.50
2022-10-01T00:23:00.140Z,25.50
2022-10-01T00:25:32.588Z,25.40
2022-10-01T00:28:09.484Z,25.30
2022-10-01T00:30:40.526Z,25.10
2022-10-01T00:33:13.324Z,25.00
2022-10-01T00:35:46.774Z,24.90
2022-10-01T00:38:17.505Z,24.80
2022-10-01T00:40:50.466Z,24.70
2022-10-01T00:43:30.080Z,24.60
2022-10-01T00:46:26.955Z,24.60
2022-10-01T00:49:08.061Z,24.60
2022-10-01T00:51:48.527Z,24.60
2022-10-01T00:54:31.894Z,24.50
2022-10-01T00:57:05.129Z,24.30
2022-10-01T00:59:38.118Z,24.30
2022-10-01T01:02:08.510Z,24.10
2022-10-01T01:04:41.011Z,24.10
2022-10-01T01:07:10.897Z,24.00
2022-10-01T01:09:59.673Z,23.80
2022-10-01T01:13:07.527Z,23.80
2022-10-01T01:15:43.948Z,23.80
2022-10-01T01:18:42.071Z,23.70
2022-10-01T01:21:39.502Z,23.50
2022-10-01T01:24:36.915Z,23.50
2022-10-01T01:27:28.320Z,23.30
2022-10-01T01:30:10.789Z,23.20
2022-10-01T01:32:49.950Z,23.20
2022-10-01T01:35:34.823Z,23.10
2022-10-01T01:38:13.486Z,23.10
2022-10-01T01:40:47.220Z,23.00
2022-10-01T01:43:24.825Z,23.00
2022-10-01T01:45:56.944Z,23.00
2022-10-01T01:48:28.835Z,23.00
2022-10-01T01:51:02.244Z,23.00
2022-10-01T01:53:33.623Z,22.90
2022-10-01T01:56:04.186Z,22.90
2022-10-01T01:58:36.441Z,22.80
2022-10-01T02:01:08.416Z,22.80
2022-10-01T02:03:45.199Z,22.80
2022-10-01T02:06:52.086Z,22.70
2022-10-01T02:09:30.516Z,22.60
2022-10-01T02:12:41.906Z,22.60
2022-10-01T02:15:56.861Z,22.50
2022-10-01T02:18:32.383Z,22.50
2022-10-01T02:21:33.552Z,22.60
2022-10-01T02:24:22.457Z,22.70
2022-10-01T02:26:57.014Z,22.70
2022-10-01T02:29:27.580Z,22.60
2022-10-01T02:31:59.372Z,22.70
2022-10-01T02:34:32.555Z,22.60
2022-10-01T02:37:06.007Z,22.60
2022-10-01T02:39:37.638Z,22.60
2022-10-01T02:42:11.104Z,22.60
2022-10-01T02:44:44.188Z,22.50
2022-10-01T02:47:22.586Z,22.50
2022-10-01T02:49:54.271Z,22.50
2022-10-01T02:52:24.841Z,22.50
2022-10-01T02:55:13.070Z,22.50
2022-10-01T02:57:44.199Z,22.40
2022-10-01T03:00:22.372Z,22.40
2022-10-01T03:02:52.039Z,22.30
2022-10-01T03:05:23.919Z,22.30
2022-10-01T03:07:56.434Z,22.20
2022-10-01T03:10:28.743Z,22.20
2022-10-01T03:13:03.066Z,22.10
2022-10-01T03:15:34.538Z,22.00
2022-10-01T03:18:04.469Z,22.10
2022-10-01T03:20:38.299Z,22.00
2022-10-01T03:23:07.609Z,21.90
2022-10-01T03:25:37.493Z,22.00
2022-10-01T03:28:08.429Z,22.00
2022-10-01T03:30:39.832Z,22.00
2022-10-01T03:33:12.538Z,22.20
2022-10-01T03:35:45.004Z,22.10
2022-10-01T03:38:16.190Z,22.00
2022-10-01T03:40:46.175Z,21.90
2022-10-01T03:43:17.071Z,21.90
2022-10-01T03:45:47.734Z,21.80
2022-10-01T03:48:19.834Z,21.60
2022-10-01T03:51:02.087Z,21.50
2022-10-01T03:53:32.297Z,21.50
2022-10-01T03:56:06.251Z,21.40
2022-10-01T03:58:36.233Z,21.30
2022-10-01T04:01:06.464Z,21.30
2022-10-01T04:03:37.205Z,21.10
2022-10-01T04:06:08.757Z,21.10
2022-10-01T04:08:40.171Z,21.20
2022-10-01T04:11:10.373Z,21.30
2022-10-01T04:13:40.197Z,21.30
2022-10-01T04:16:11.318Z,21.30
2022-10-01T04:18:43.327Z,21.20
2022-10-01T04:21:16.306Z,21.30
2022-10-01T04:23:47.529Z,21.20
2022-10-01T04:26:20.256Z,21.10
2022-10-01T04:28:50.049Z,21.10
2022-10-01T04:31:26.485Z,21.10
2022-10-01T04:33:59.689Z,21.00
2022-10-01T04:36:30.440Z,21.00
2022-10-01T04:39:02.582Z,21.00
2022-10-01T04:41:38.740Z,21.00
2022-10-01T04:44:10.452Z,21.00
2022-10-01T04:46:41.057Z,20.90
2022-10-01T04:49:12.685Z,20.90
2022-10-01T04:51:42.996Z,20.80
2022-10-01T04:54:12.882Z,20.70
2022-10-01T04:56:45.656Z,20.70
2022-10-01T04:59:15.857Z,20.70
2022-10-01T05:01:47.038Z,20.70
2022-10-01T05:04:17.059Z,20.60
2022-10-01T05:06:49.173Z,20.50
2022-10-01T05:09:21.379Z,20.30
2022-10-01T05:11:54.720Z,20.30
2022-10-01T05:14:27.889Z,20.40
2022-10-01T05:17:00.567Z,20.40
2022-10-01T05:19:31.319Z,20.50
2022-10-01T05:22:05.853Z,20.50
2022-10-01T05:24:38.640Z,20.30
2022-10-01T05:27:11.714Z,20.20
2022-10-01T05:29:45.336Z,20.10
2022-10-01T05:32:15.745Z,20.20
2022-10-01T05:34:47.915Z,20.10
2022-10-01T05:37:21.865Z,20.00
2022-10-01T05:39:52.456Z,20.00
2022-10-01T05:42:22.921Z,20.00
2022-10-01T05:44:52.558Z,20.10
2022-10-01T05:47:23.386Z,20.30
2022-10-01T05:49:52.611Z,20.30
2022-10-01T05:52:24.092Z,20.20
2022-10-01T05:54:58.279Z,20.20
2022-10-01T05:57:28.925Z,20.00
2022-10-01T05:59:59.140Z,19.70
2022-10-01T06:02:31.248Z,19.50
2022-10-01T06:05:01.181Z,19.50
2022-10-01T06:07:36.250Z,19.40
2022-10-01T06:10:06.328Z,19.50
2022-10-01T06:12:38.978Z,19.30
2022-10-01T06:15:13.129Z,19.30
2022-10-01T06:17:46.256Z,19.10
2022-10-01T06:20:20.280Z,19.10
2022-10-01T06:23:02.068Z,19.00
2022-10-01T06:25:32.401Z,19.00
2022-10-01T06:28:02.461Z,19.00
2022-10-01T06:30:36.936Z,19.10
2022-10-01T06:33:12.744Z,19.00
2022-10-01T06:35:48.241Z,18.90
2022-10-01T06:38:22.222Z,18.90
2022-10-01T06:41:01.170Z,18.90
2022-10-01T06:43:35.995Z,18.80
2022-10-01T06:46:07.735Z,18.70
2022-10-01T06:48:39.822Z,18.60
2022-10-01T06:51:12.270Z,18.50
2022-10-01T06:53:42.925Z,18.50
2022-10-01T06:56:13.346Z,18.30
2022-10-01T06:58:44.251Z,18.40
2022-10-01T07:01:14.500Z,18.30
2022-10-01T07:03:46.809Z,18.20
2022-10-01T07:06:17.490Z,18.20
2022-10-01T07:08:51.588Z,18.20
2022-10-01T07:11:21.745Z,18.10
2022-10-01T07:13:54.702Z,18.00
2022-10-01T07:16:27.056Z,18.00
2022-10-01T07:19:01.868Z,18.00
2022-10-01T07:21:33.866Z,18.10
2022-10-01T07:24:05.592Z,17.90
2022-10-01T07:26:36.779Z,17.90
2022-10-01T07:29:07.827Z,17.90
2022-10-01T07:31:43.246Z,18.00
2022-10-01T07:34:13.074Z,18.00
2022-10-01T07:36:47.429Z,17.90
2022-10-01T07:39:17.826Z,17.80
2022-10-01T07:41:50.120Z,17.90
2022-10-01T07:44:21.508Z,17.70
2022-10-01T07:46:53.481Z,17.80
2022-10-01T07:49:28.902Z,17.90
2022-10-01T07:52:00.417Z,17.90
2022-10-01T07:54:30.974Z,17.80
2022-10-01T07:57:03.526Z,17.80
2022-10-01T07:59:35.427Z,17.60
2022-10-01T08:02:06.172Z,17.50
2022-10-01T08:04:56.383Z,17.40
2022-10-01T08:07:26.761Z,17.50
2022-10-01T08:09:56.565Z,17.30
2022-10-01T08:12:29.836Z,17.20
2022-10-01T08:14:59.638Z,17.10
2022-10-01T08:17:30.203Z,17.10
2022-10-01T08:20:00.619Z,17.10
2022-10-01T08:22:31.624Z,17.00
2022-10-01T08:25:01.584Z,17.00
2022-10-01T08:27:38.351Z,17.20
2022-10-01T08:30:09.905Z,17.10
2022-10-01T08:32:42.106Z,17.00
2022-10-01T08:35:11.187Z,17.00
2022-10-01T08:37:42.047Z,17.10
2022-10-01T08:40:11.928Z,17.10
2022-10-01T08:42:55.765Z,16.90
2022-10-01T08:45:38.358Z,16.90
2022-10-01T08:48:47.116Z,16.80
2022-10-01T08:52:04.672Z,16.80
2022-10-01T08:54:52.973Z,16.90
2022-10-01T08:57:32.156Z,16.90
2022-10-01T09:00:09.294Z,16.60
2022-10-01T09:02:44.524Z,16.60
2022-10-01T09:05:33.405Z,16.70
2022-10-01T09:08:46.274Z,16.50
2022-10-01T09:11:32.152Z,16.40
2022-10-01T09:14:15.210Z,16.50
2022-10-01T09:17:21.537Z,16.50
2022-10-01T09:20:18.731Z,16.60
2022-10-01T09:23:05.960Z,16.60
2022-10-01T09:25:38.996Z,16.50
2022-10-01T09:28:37.286Z,16.40
2022-10-01T09:31:19.290Z,16.50
2022-10-01T09:34:24.689Z,16.60
2022-10-01T09:37:16.107Z,16.70
2022-10-01T09:40:09.882Z,16.50
2022-10-01T09:42:41.346Z,16.40
2022-10-01T09:45:20.641Z,16.30
2022-10-01T09:47:53.378Z,16.40
2022-10-01T09:50:42.823Z,16.40
2022-10-01T09:53:23.654Z,16.30
2022-10-01T09:56:01.430Z,16.30
2022-10-01T09:58:32.125Z,16.40
2022-10-01T10:01:03.304Z,16.50
2022-10-01T10:03:34.993Z,16.30
2022-10-01T10:06:08.315Z,16.30
2022-10-01T10:08:41.587Z,16.30
2022-10-01T10:11:13.439Z,16.20
2022-10-01T10:13:51.280Z,16.10
2022-10-01T10:16:36.829Z,16.00
2022-10-01T10:19:18.716Z,15.90
2022-10-01T10:21:58.845Z,15.90
2022-10-01T10:24:41.927Z,15.90
2022-10-01T10:27:29.043Z,16.00
2022-10-01T10:30:17.851Z,15.90
2022-10-01T10:32:51.299Z,16.00
2022-10-01T10:35:27.533Z,16.10
2022-10-01T10:37:59.697Z,16.00
2022-10-01T10:40:46.323Z,16.10
2022-10-01T10:43:29.992Z,15.90
2022-10-01T10:46:00.851Z,15.80
2022-10-01T10:48:37.626Z,15.90
2022-10-01T10:51:07.669Z,15.80
2022-10-01T10:53:47.039Z,15.90
2022-10-01T10:56:26.113Z,15.70
2022-10-01T10:58:56.368Z,15.60
2022-10-01T11:01:31.930Z,15.50
2022-10-01T11:04:06.399Z,15.50
2022-10-01T11:06:40.377Z,15.40
2022-10-01T11:09:15.399Z,15.30
2022-10-01T11:11:54.801Z,15.20
2022-10-01T11:14:40.554Z,15.30
2022-10-01T11:17:48.531Z,15.20
2022-10-01T11:20:26.979Z,15.10
2022-10-01T11:23:08.230Z,15.20
2022-10-01T11:26:21.620Z,15.20
2022-10-01T11:29:10.082Z,15.10
2022-10-01T11:32:26.018Z,15.00
2022-10-01T11:35:06.830Z,15.00
2022-10-01T11:37:49.658Z,15.00
2022-10-01T11:40:37.778Z,15.10
2022-10-01T11:43:35.376Z,15.10
2022-10-01T11:46:35.346Z,15.10
2022-10-01T11:49:26.532Z,15.10
2022-10-01T11:52:20.105Z,15.10
2022-10-01T11:55:00.563Z,15.00
2022-10-01T11:57:52.529Z,15.10
2022-10-01T12:00:26.614Z,14.90
2022-10-01T12:03:04.060Z,15.00
2022-10-01T12:05:35.890Z,15.20
2022-10-01T12:08:13.521Z,14.90
2022-10-01T12:11:20.915Z,15.00
2022-10-01T12:13:59.239Z,14.80
2022-10-01T12:16:43.706Z,14.70
2022-10-01T12:19:37.233Z,14.80
2022-10-01T12:22:23.609Z,14.70
2022-10-01T12:24:55.739Z,14.80
2022-10-01T12:27:50.085Z,14.60
2022-10-01T12:30:30.803Z,14.50
2022-10-01T12:33:19.862Z,14.60
2022-10-01T12:36:05.673Z,14.60
2022-10-01T12:39:11.402Z,14.50
2022-10-01T12:42:32.355Z,14.50
2022-10-01T12:45:31.419Z,14.60
2022-10-01T12:48:07.973Z,14.60
2022-10-01T12:50:48.970Z,14.70
2022-10-01T12:53:39.671Z,14.70
2022-10-01T12:56:30.698Z,14.90
2022-10-01T12:59:26.830Z,14.90
2022-10-01T13:02:23.629Z,15.10
2022-10-01T13:05:15.149Z,15.10
2022-10-01T13:08:06.074Z,15.10
2022-10-01T13:10:58.726Z,15.60
2022-10-01T13:13:36.765Z,15.40
2022-10-01T13:16:40.428Z,15.50
2022-10-01T13:19:30.533Z,15.90
2022-10-01T13:22:26.291Z,15.80
2022-10-01T13:25:20.462Z,15.60
2022-10-01T13:28:05.675Z,15.70
2022-10-01T13:30:52.537Z,15.70
2022-10-01T13:33:37.295Z,15.90
2022-10-01T13:36:10.190Z,16.20
2022-10-01T13:38:40.694Z,16.20
2022-10-01T13:41:24.669Z,16.20
2022-10-01T13:44:21.763Z,16.40
2022-10-01T13:47:07.746Z,16.50
2022-10-01T13:49:44.120Z,16.70
2022-10-01T13:52:22.774Z,16.70
2022-10-01T13:54:58.993Z,16.60
2022-10-01T13:57:41.651Z,16.50
2022-10-01T14:00:14.064Z,16.60
2022-10-01T14:02:59.887Z,16.90
2022-10-01T14:05:41.182Z,16.80
2022-10-01T14:08:19.792Z,17.30
2022-10-01T14:11:25.481Z,17.40
2022-10-01T14:14:15.991Z,17.40
2022-10-01T14:16:51.091Z,17.40
2022-10-01T14:19:30.471Z,17.50
2022-10-01T14:22:30.647Z,17.60
2022-10-01T14:25:50.320Z,17.70
2022-10-01T14:28:32.298Z,17.70
2022-10-01T14:31:30.922Z,17.90
2022-10-01T14:34:13.057Z,17.90
2022-10-01T14:36:54.684Z,18.00
2022-10-01T14:39:32.487Z,18.30
2022-10-01T14:42:16.955Z,18.20
2022-10-01T14:44:48.393Z,18.30
2022-10-01T14:47:27.103Z,18.50
2022-10-01T14:49:57.329Z,18.70
2022-10-01T14:52:33.663Z,18.60
2022-10-01T14:55:10.739Z,18.60
2022-10-01T14:57:44.605Z,18.60
2022-10-01T15:00:33.125Z,18.70
2022-10-01T15:03:19.566Z,18.80
2022-10-01T15:05:50.422Z,18.80
2022-10-01T15:08:45.574Z,19.00
2022-10-01T15:11:35.488Z,19.00
2022-10-01T15:14:11.198Z,19.20
2022-10-01T15:16:42.876Z,19.20
2022-10-01T15:19:18.752Z,19.30
2022-10-01T15:22:06.813Z,19.40
2022-10-01T15:24:47.007Z,19.50
2022-10-01T15:27:22.770Z,19.60
2022-10-01T15:29:56.658Z,19.70
2022-10-01T15:32:30.213Z,19.80
2022-10-01T15:35:04.957Z,19.90
2022-10-01T15:37:38.799Z,20.10
2022-10-01T15:40:30.340Z,20.10
2022-10-01T15:43:28.471Z,20.20
2022-10-01T15:46:08.301Z,20.20
2022-10-01T15:48:39.261Z,20.50
2022-10-01T15:51:30.554Z,20.70
2022-10-01T15:54:11.346Z,20.70
2022-10-01T15:56:44.431Z,20.90
2022-10-01T15:59:21.967Z,20.90
2022-10-01T16:01:53.784Z,21.00
2022-10-01T16:04:26.303Z,21.10
2022-10-01T16:06:56.017Z,21.40
2022-10-01T16:09:31.081Z,21.40
2022-10-01T16:12:23.875Z,21.40
2022-10-01T16:15:27.292Z,21.60
2022-10-01T16:18:07.727Z,21.60
2022-10-01T16:20:47.888Z,21.60
2022-10-01T16:23:55.904Z,21.50
2022-10-01T16:26:29.622Z,21.70
2022-10-01T16:29:08.234Z,21.90
2022-10-01T16:31:48.935Z,21.90
2022-10-01T16:34:21.831Z,21.90
2022-10-01T16:36:53.464Z,22.20
2022-10-01T16:39:26.374Z,22.30
2022-10-01T16:42:22.252Z,22.50
2022-10-01T16:44:48.510Z,22.50
2022-10-01T16:47:19.797Z,22.50
2022-10-01T16:49:53.661Z,22.60
2022-10-01T16:52:23.579Z,22.70
2022-10-01T16:54:54.052Z,22.80
2022-10-01T16:57:23.858Z,22.90
2022-10-01T16:59:54.792Z,22.90
2022-10-01T17:02:25.031Z,22.90
2022-10-01T17:04:55.719Z,23.10
2022-10-01T17:07:26.113Z,23.00
2022-10-01T17:09:57.399Z,23.20
2022-10-01T17:12:27.736Z,23.20
2022-10-01T17:15:00.632Z,23.10
2022-10-01T17:17:31.136Z,23.30
2022-10-01T17:20:03.376Z,23.40
2022-10-01T17:22:35.317Z,23.40
2022-10-01T17:25:08.903Z,23.70
2022-10-01T17:27:39.145Z,23.60
2022-10-01T17:30:09.734Z,23.70
2022-10-01T17:32:40.983Z,23.60
2022-10-01T17:35:15.794Z,23.50
2022-10-01T17:37:46.244Z,23.50
2022-10-01T17:40:17.098Z,23.80
2022-10-01T17:42:46.930Z,24.00
2022-10-01T17:45:18.111Z,24.20
2022-10-01T17:47:53.091Z,24.10
2022-10-01T17:50:23.191Z,24.10
2022-10-01T17:52:55.232Z,24.20
2022-10-01T17:55:26.736Z,24.20
2022-10-01T17:57:58.718Z,24.30
2022-10-01T18:00:29.453Z,24.10
2022-10-01T18:03:02.789Z,24.10
2022-10-01T18:05:33.958Z,24.20
2022-10-01T18:08:05.107Z,24.40
2022-10-01T18:10:35.927Z,24.40
2022-10-01T18:13:06.306Z,24.40
2022-10-01T18:15:36.540Z,24.30
2022-10-01T18:19:31.005Z,24.40
2022-10-01T18:21:10.369Z,24.40
2022-10-01T18:23:40.120Z,24.40
2022-10-01T18:26:11.886Z,24.50
2022-10-01T18:28:41.627Z,24.70
2022-10-01T18:31:16.127Z,25.00
2022-10-01T18:33:59.498Z,24.80
2022-10-01T18:37:19.859Z,24.80
2022-10-01T18:40:07.813Z,25.00
2022-10-01T18:43:02.510Z,25.00
2022-10-01T18:46:00.845Z,25.00
2022-10-01T18:49:05.474Z,24.90
2022-10-01T18:52:05.861Z,24.90
2022-10-01T18:55:06.275Z,25.00
2022-10-01T18:58:01.814Z,25.20
2022-10-01T19:00:52.991Z,25.40
2022-10-01T19:03:52.617Z,25.40
2022-10-01T19:06:53.910Z,25.30
2022-10-01T19:09:41.177Z,25.60
2022-10-01T19:12:48.321Z,25.50
2022-10-01T19:15:30.829Z,25.60
2022-10-01T19:18:29.914Z,25.70
2022-10-01T19:21:07.082Z,25.60
2022-10-01T19:23:47.014Z,25.70
2022-10-01T19:26:30.513Z,25.60
2022-10-01T19:29:25.540Z,25.60
2022-10-01T19:32:13.510Z,25.70
2022-10-01T19:35:21.293Z,25.80
2022-10-01T19:37:59.621Z,26.00
2022-10-01T19:40:56.909Z,25.90
2022-10-01T19:43:49.311Z,25.90
2022-10-01T19:46:33.751Z,25.80
2022-10-01T19:49:11.031Z,25.90
2022-10-01T19:51:50.512Z,25.80
2022-10-01T19:54:25.387Z,25.90
2022-10-01T19:57:25.352Z,25.90
2022-10-01T20:00:11.815Z,26.00
2022-10-01T20:02:46.707Z,25.90
2022-10-01T20:05:26.284Z,25.90
2022-10-01T20:08:02.394Z,26.00
2022-10-01T20:11:04.680Z,26.00
2022-10-01T20:13:39.067Z,26.10
2022-10-01T20:16:31.864Z,26.50
2022-10-01T20:19:25.565Z,26.50
2022-10-01T20:22:24.709Z,26.40
2022-10-01T20:25:16.652Z,26.40
2022-10-01T20:28:21.455Z,26.40
2022-10-01T20:31:10.025Z,26.30
2022-10-01T20:33:46.824Z,26.40
2022-10-01T20:36:35.263Z,26.40
2022-10-01T20:39:15.270Z,26.40
2022-10-01T20:41:52.109Z,26.40
2022-10-01T20:44:32.270Z,26.40
2022-10-01T20:47:38.666Z,26.50
2022-10-01T20:50:22.732Z,26.50
2022-10-01T20:53:16.447Z,26.60
2022-10-01T20:55:58.175Z,26.60
2022-10-01T20:58:52.306Z,26.70
2022-10-01T21:01:25.624Z,26.80
2022-10-01T21:04:15.523Z,26.60
2022-10-01T21:06:53.065Z,26.70
2022-10-01T21:09:49.957Z,26.90
2022-10-01T21:12:30.836Z,27.00
2022-10-01T21:15:05.388Z,26.90
2022-10-01T21:17:46.318Z,26.90
2022-10-01T21:20:34.117Z,26.90
2022-10-01T21:23:16.005Z,26.90
2022-10-01T21:25:59.742Z,26.90
2022-10-01T21:29:00.276Z,26.80
2022-10-01T21:31:53.894Z,27.10
2022-10-01T21:34:50.115Z,27.10
2022-10-01T21:37:32.148Z,27.10
2022-10-01T21:40:16.396Z,27.00
2022-10-01T21:42:56.688Z,27.10
2022-10-01T21:45:26.577Z,27.20
2022-10-01T21:48:19.080Z,27.20
2022-10-01T21:50:53.168Z,27.30
2022-10-01T21:53:41.912Z,27.30
2022-10-01T21:56:22.007Z,27.30
2022-10-01T21:59:01.993Z,27.20
2022-10-01T22:01:50.369Z,27.30
2022-10-01T22:04:49.763Z,27.40
2022-10-01T22:07:38.139Z,27.40
2022-10-01T22:10:35.515Z,27.40
2022-10-01T22:13:26.594Z,27.30
2022-10-01T22:16:08.544Z,27.30
2022-10-01T22:19:12.044Z,27.20
2022-10-01T22:21:52.224Z,27.20
2022-10-01T22:24:28.398Z,27.40
2022-10-01T22:27:26.059Z,27.20
2022-10-01T22:30:18.151Z,27.20
2022-10-01T22:33:13.582Z,27.10
2022-10-01T22:35:42.941Z,27.20
2022-10-01T22:38:34.359Z,27.10
2022-10-01T22:41:29.435Z,27.10
2022-10-01T22:44:00.202Z,27.00
2022-10-01T22:46:55.685Z,27.00
2022-10-01T22:49:41.516Z,27.00
2022-10-01T22:52:14.038Z,26.90
2022-10-01T22:55:02.472Z,26.90
2022-10-01T22:57:51.030Z,26.90
2022-10-01T23:00:22.725Z,26.80
2022-10-01T23:03:11.861Z,26.80
2022-10-01T23:06:07.163Z,26.80
2022-10-01T23:09:08.417Z,26.80
2022-10-01T23:12:15.563Z,26.80
2022-10-01T23:15:07.188Z,26.80
2022-10-01T23:17:41.710Z,26.70
2022-10-01T23:20:30.436Z,26.70
2022-10-01T23:23:42.964Z,26.60
2022-10-01T23:26:12.826Z,26.60
2022-10-01T23:29:23.879Z,26.60
2022-10-01T23:32:11.949Z,26.50
2022-10-01T23:35:00.700Z,26.60
2022-10-01T23:37:45.491Z,26.50
2022-10-01T23:40:45.596Z,26.50
2022-10-01T23:43:38.585Z,26.40
2022-10-01T23:46:16.658Z,26.30
2022-10-01T23:49:09.937Z,26.30
2022-10-01T23:52:05.925Z,26.20
2022-10-01T23:54:42.988Z,26.10
2022-10-01T23:57:26.649Z,26.10
